createdAt,value
2022-11-05T00:01:50.071Z,7.75
2022-11-05T00:04:36.441Z,8.73
2022-11-05T00:07:26.208Z,9.75
2022-11-05T00:09:59.030Z,8.18
2022-11-05T00:12:45.063Z,6.95
2022-11-05T00:15:31.144Z,6.75
2022-11-05T00:17:59.560Z,8.85
2022-11-05T00:20:28.036Z,7.50
2022-11-05T00:23:19.933Z,7.68
2022-11-05T00:25:55.805Z,8.32
2022-11-05T00:28:24.235Z,7.97
2022-11-05T00:30:53.076Z,7.85
2022-11-05T00:33:21.750Z,7.40
2022-11-05T00:35:50.167Z,6.68
2022-11-05T00:38:19.975Z,7.88
2022-11-05T00:40:48.417Z,6.60
2022-11-05T00:43:34.382Z,7.78
2022-11-05T00:46:02.896Z,7.07
2022-11-05T00:48:48.508Z,7.82
2022-11-05T00:51:17.216Z,8.63
2022-11-05T00:53:47.021Z,6.35
2022-11-05T00:56:15.631Z,6.20
2022-11-05T00:58:43.982Z,7.43
2022-11-05T01:01:12.565Z,6.80
2022-11-05T01:03:42.759Z,6.30
2022-11-05T01:06:16.175Z,6.30
2022-11-05T01:08:47.190Z,6.10
2022-11-05T01:11:32.958Z,6.18
2022-11-05T01:14:02.281Z,5.63
2022-11-05T01:16:30.962Z,6.30
2022-11-05T01:18:59.309Z,6.20
2022-11-05T01:21:27.811Z,6.30
2022-11-05T01:23:57.567Z,5.57
2022-11-05T01:26:26.156Z,7.40
2022-11-05T01:28:55.164Z,5.80
2022-11-05T01:31:24.573Z,4.78
2022-11-05T01:33:53.043Z,6.05
2022-11-05T01:36:21.526Z,6.88
2022-11-05T01:38:49.872Z,5.53
2022-11-05T01:41:19.666Z,6.07
2022-11-05T01:43:50.219Z,5.47
2022-11-05T01:46:21.008Z,5.97
2022-11-05T01:48:56.140Z,5.95
2022-11-05T01:51:29.089Z,6.45
2022-11-05T01:54:03.961Z,6.13
2022-11-05T01:56:38.685Z,5.85
2022-11-05T02:01:38.024Z,5.18
2022-11-05T02:04:11.173Z,4.72
2022-11-05T02:06:46.020Z,4.95
2022-11-05T02:09:19.917Z,5.40
2022-11-05T02:11:51.801Z,6.07
2022-11-05T02:14:20.333Z,5.32
2022-11-05T02:16:54.382Z,5.80
2022-11-05T02:19:54.492Z,4.43
2022-11-05T02:22:53.193Z,5.63
2022-11-05T02:25:57.247Z,5.50
2022-11-05T02:28:45.523Z,5.32
2022-11-05T02:31:21.266Z,4.45
2022-11-05T02:33:58.115Z,5.22
2022-11-05T02:36:37.960Z,6.65
2022-11-05T02:39:21.580Z,6.28
2022-11-05T02:42:04.896Z,6.05
2022-11-05T02:44:41.309Z,6.03
2022-11-05T02:47:23.132Z,6.15
2022-11-05T02:49:59.459Z,6.40
2022-11-05T02:52:37.451Z,5.97
2022-11-05T02:55:14.617Z,5.13
2022-11-05T02:57:45.897Z,6.03
2022-11-05T03:00:47.718Z,6.70
2022-11-05T03:03:22.954Z,5.22
2022-11-05T03:06:09.708Z,5.63
2022-11-05T03:08:51.712Z,5.32
2022-11-05T03:11:22.535Z,4.68
2022-11-05T03:13:59.211Z,5.70
2022-11-05T03:16:36.976Z,5.90
2022-11-05T03:19:14.406Z,5.43
2022-11-05T03:21:47.323Z,4.75
2022-11-05T03:24:19.689Z,4.63
2022-11-05T03:26:53.556Z,4.97
2022-11-05T03:29:28.226Z,5.70
2022-11-05T03:34:32.789Z,5.40
2022-11-05T03:39:33.590Z,6.03
2022-11-05T03:42:05.098Z,5.55
2022-11-05T03:44:37.589Z,4.57
2022-11-05T03:47:08.362Z,5.15
2022-11-05T03:49:42.126Z,6.18
2022-11-05T03:52:17.226Z,5.53
2022-11-05T03:54:46.124Z,6.03
2022-11-05T03:57:20.313Z,5.80
2022-11-05T03:59:51.957Z,5.90
2022-11-05T04:02:26.243Z,4.70
2022-11-05T04:05:03.683Z,5.65
2022-11-05T04:07:50.104Z,4.60
2022-11-05T04:10:59.982Z,6.95
2022-11-05T04:13:32.769Z,5.00
2022-11-05T04:16:19.451Z,5.63
2022-11-05T04:18:49.093Z,5.25
2022-11-05T04:21:37.156Z,5.63
2022-11-05T04:24:09.591Z,5.70
2022-11-05T04:26:45.540Z,5.82
2022-11-05T04:29:34.385Z,6.30
2022-11-05T04:32:03.395Z,6.10
2022-11-05T04:34:43.493Z,5.97
2022-11-05T04:37:15.898Z,8.13
2022-11-05T04:39:45.408Z,6.10
2022-11-05T04:42:19.748Z,5.95
2022-11-05T04:44:49.263Z,5.38
2022-11-05T04:47:18.306Z,5.63
2022-11-05T04:50:03.837Z,6.13
2022-11-05T04:52:33.697Z,6.30
2022-11-05T04:55:02.022Z,5.60
2022-11-05T04:57:30.348Z,5.70
2022-11-05T04:59:58.699Z,6.28
2022-11-05T05:02:27.121Z,6.40
2022-11-05T05:04:55.425Z,5.40
2022-11-05T05:07:23.744Z,6.47
2022-11-05T05:09:54.856Z,6.25
2022-11-05T05:12:23.938Z,6.80
2022-11-05T05:14:52.308Z,7.30
2022-11-05T05:17:20.677Z,5.45
2022-11-05T05:20:06.317Z,6.18
2022-11-05T05:22:34.847Z,6.57
2022-11-05T05:25:05.416Z,6.68
2022-11-05T05:27:33.748Z,6.85
2022-11-05T05:30:02.088Z,6.82
2022-11-05T05:32:30.472Z,6.28
2022-11-05T05:34:58.825Z,6.30
2022-11-05T05:37:27.120Z,7.90
2022-11-05T05:39:55.437Z,8.00
2022-11-05T05:42:25.170Z,7.40
2022-11-05T05:44:53.492Z,7.05
2022-11-05T05:47:21.815Z,7.38
2022-11-05T05:49:50.696Z,6.53
2022-11-05T05:52:19.112Z,7.30
2022-11-05T05:54:47.454Z,6.32
2022-11-05T05:57:15.781Z,6.75
2022-11-05T05:59:45.509Z,6.15
2022-11-05T06:02:13.938Z,5.80
2022-11-05T06:04:42.347Z,6.85
2022-11-05T06:07:10.689Z,6.70
2022-11-05T06:09:39.031Z,5.70
2022-11-05T06:12:07.840Z,7.15
2022-11-05T06:14:36.167Z,5.95
2022-11-05T06:17:07.747Z,7.00
2022-11-05T06:19:36.169Z,6.72
2022-11-05T06:22:04.614Z,6.65
2022-11-05T06:24:32.997Z,6.28
2022-11-05T06:27:01.312Z,6.78
2022-11-05T06:29:29.668Z,7.70
2022-11-05T06:31:58.086Z,8.38
2022-11-05T06:34:27.789Z,6.05
2022-11-05T06:36:56.130Z,6.60
2022-11-05T06:39:24.464Z,6.65
2022-11-05T06:44:41.198Z,6.63
2022-11-05T06:47:09.579Z,7.05
2022-11-05T06:49:39.254Z,7.93
2022-11-05T06:52:07.598Z,5.63
2022-11-05T06:54:35.905Z,7.75
2022-11-05T06:57:04.627Z,8.75
2022-11-05T06:59:33.173Z,7.68
2022-11-05T07:02:01.590Z,6.82
2022-11-05T07:04:30.086Z,8.70
2022-11-05T07:07:01.312Z,7.80
2022-11-05T07:09:30.005Z,6.80
2022-11-05T07:11:58.302Z,6.43
2022-11-05T07:14:26.678Z,8.07
2022-11-05T07:16:54.989Z,8.43
2022-11-05T07:19:23.384Z,6.45
2022-11-05T07:21:52.417Z,8.10
2022-11-05T07:24:22.147Z,8.65
2022-11-05T07:26:50.566Z,7.35
2022-11-05T07:29:18.878Z,8.57
2022-11-05T07:31:47.931Z,7.13
2022-11-05T07:34:16.280Z,8.63
2022-11-05T07:36:44.651Z,6.97
2022-11-05T07:39:12.952Z,8.00
2022-11-05T07:41:42.804Z,8.98
2022-11-05T07:44:11.658Z,9.65
2022-11-05T07:46:40.023Z,7.47
2022-11-05T07:49:08.685Z,7.30
2022-11-05T07:51:37.006Z,6.43
2022-11-05T07:54:05.465Z,6.80
2022-11-05T07:56:33.808Z,7.22
2022-11-05T07:59:03.579Z,8.20
2022-11-05T08:01:32.169Z,7.00
2022-11-05T08:04:00.701Z,8.32
2022-11-05T08:06:29.085Z,7.97
2022-11-05T08:08:57.376Z,8.50
2022-11-05T08:11:25.774Z,8.68
2022-11-05T08:13:54.179Z,13.48
2022-11-05T08:16:23.910Z,11.13
2022-11-05T08:18:52.240Z,12.10
2022-11-05T08:21:20.653Z,13.45
2022-11-05T08:23:48.959Z,9.98
2022-11-05T08:26:17.281Z,9.85
2022-11-05T08:28:45.661Z,13.40
2022-11-05T08:31:15.298Z,15.63
2022-11-05T08:33:45.114Z,12.38
2022-11-05T08:36:13.694Z,13.23
2022-11-05T08:38:41.977Z,14.40
2022-11-05T08:41:10.321Z,13.45
2022-11-05T08:43:38.710Z,14.38
2022-11-05T08:46:07.227Z,14.35
2022-11-05T08:48:35.569Z,13.73
2022-11-05T08:51:05.536Z,15.98
2022-11-05T08:53:33.915Z,15.25
2022-11-05T08:56:02.322Z,17.83
2022-11-05T08:58:30.864Z,16.77
2022-11-05T09:01:04.703Z,13.30
2022-11-05T09:03:33.503Z,16.48
2022-11-05T09:06:01.911Z,20.17
2022-11-05T09:08:31.693Z,17.77
2022-11-05T09:11:00.068Z,18.08
2022-11-05T09:13:28.527Z,13.80
2022-11-05T09:15:59.219Z,15.48
2022-11-05T09:18:27.661Z,21.13
2022-11-05T09:20:56.175Z,18.02
2022-11-05T09:23:24.630Z,17.58
2022-11-05T09:25:54.349Z,17.58
2022-11-05T09:28:24.074Z,19.95
2022-11-05T09:30:53.842Z,17.77
2022-11-05T09:33:23.925Z,18.42
2022-11-05T09:35:53.609Z,18.38
2022-11-05T09:38:22.110Z,13.50
2022-11-05T09:40:58.657Z,16.13
2022-11-05T09:43:32.594Z,14.82
2022-11-05T09:46:08.485Z,17.33
2022-11-05T09:48:39.675Z,14.40
2022-11-05T09:51:08.284Z,14.18
2022-11-05T09:53:40.530Z,15.07
2022-11-05T09:56:22.057Z,14.07
2022-11-05T09:58:55.645Z,14.50
2022-11-05T10:01:26.952Z,12.77
2022-11-05T10:03:59.032Z,14.68
2022-11-05T10:06:28.676Z,14.38
2022-11-05T10:09:06.661Z,11.82
2022-11-05T10:11:41.828Z,13.18
2022-11-05T10:14:17.639Z,14.65
2022-11-05T10:16:53.998Z,15.98
2022-11-05T10:19:26.444Z,14.10
2022-11-05T10:22:06.520Z,14.55
2022-11-05T10:24:35.744Z,12.77
2022-11-05T10:27:06.443Z,13.38
2022-11-05T10:29:36.221Z,13.10
2022-11-05T10:32:07.214Z,11.57
2022-11-05T10:34:39.211Z,10.77
2022-11-05T10:37:07.736Z,11.32
2022-11-05T10:39:36.211Z,11.10
2022-11-05T10:42:19.979Z,13.32
2022-11-05T10:44:54.716Z,12.70
2022-11-05T10:47:46.645Z,13.10
2022-11-05T10:50:19.498Z,13.23
2022-11-05T10:52:57.133Z,12.77
2022-11-05T10:55:27.101Z,10.32
2022-11-05T10:58:07.903Z,9.93
2022-11-05T11:00:36.988Z,11.27
2022-11-05T11:03:07.266Z,9.13
2022-11-05T11:05:39.073Z,15.07
2022-11-05T11:08:24.351Z,10.95
2022-11-05T11:10:56.643Z,11.75
2022-11-05T11:13:27.905Z,12.13
2022-11-05T11:16:13.883Z,9.77
2022-11-05T11:18:44.967Z,10.48
2022-11-05T11:21:17.277Z,9.35
2022-11-05T11:23:55.342Z,9.25
2022-11-05T11:26:25.519Z,9.60
2022-11-05T11:28:59.004Z,8.10
2022-11-05T11:31:30.120Z,9.55
2022-11-05T11:34:02.229Z,12.07
2022-11-05T11:36:36.648Z,10.05
2022-11-05T11:39:08.028Z,11.70
2022-11-05T11:41:41.846Z,10.27
2022-11-05T11:44:18.896Z,9.00
2022-11-05T11:46:50.389Z,9.93
2022-11-05T11:49:33.096Z,8.32
2022-11-05T11:52:05.150Z,8.65
2022-11-05T11:54:34.832Z,7.32
2022-11-05T11:57:03.295Z,7.15
2022-11-05T12:00:06.533Z,5.68
2022-11-05T12:03:03.902Z,6.65
2022-11-05T12:05:42.314Z,6.63
2022-11-05T12:08:23.611Z,7.53
2022-11-05T12:11:00.695Z,7.03
2022-11-05T12:13:55.620Z,7.82
2022-11-05T12:16:38.759Z,5.70
2022-11-05T12:19:20.916Z,5.18
2022-11-05T12:21:59.285Z,5.15
2022-11-05T12:24:51.347Z,5.38
2022-11-05T12:27:34.482Z,4.82
2022-11-05T12:30:06.334Z,6.50
2022-11-05T12:33:04.511Z,5.85
2022-11-05T12:35:48.089Z,5.70
2022-11-05T12:38:32.510Z,7.88
2022-11-05T12:41:16.551Z,5.68
2022-11-05T12:43:57.097Z,6.60
2022-11-05T12:46:35.208Z,6.43
2022-11-05T12:49:34.108Z,5.60
2022-11-05T12:52:16.995Z,7.68
2022-11-05T12:54:59.457Z,8.18
2022-11-05T12:57:30.624Z,5.63
2022-11-05T13:00:20.444Z,5.78
2022-11-05T13:02:53.719Z,8.82
2022-11-05T13:05:37.467Z,6.20
2022-11-05T13:08:11.128Z,5.70
2022-11-05T13:10:43.737Z,7.15
2022-11-05T13:13:16.558Z,7.13
2022-11-05T13:15:51.820Z,5.35
2022-11-05T13:18:24.267Z,5.22
2022-11-05T13:20:57.383Z,4.70
2022-11-05T13:23:32.280Z,5.10
2022-11-05T13:26:04.396Z,7.43
2022-11-05T13:28:37.949Z,5.38
2022-11-05T13:31:12.664Z,4.70
2022-11-05T13:33:44.781Z,5.20
2022-11-05T13:36:35.719Z,7.07
2022-11-05T13:39:14.076Z,8.20
2022-11-05T13:41:54.906Z,5.18
2022-11-05T13:44:55.034Z,6.22
2022-11-05T13:47:40.386Z,4.95
2022-11-05T13:50:42.125Z,5.38
2022-11-05T13:53:55.058Z,6.53
2022-11-05T13:56:41.561Z,5.65
2022-11-05T13:59:40.930Z,6.28
2022-11-05T14:02:16.702Z,4.28
2022-11-05T14:04:48.933Z,5.55
2022-11-05T14:07:20.666Z,5.03
2022-11-05T14:09:56.929Z,5.20
2022-11-05T14:12:30.477Z,6.25
2022-11-05T14:15:04.825Z,5.78
2022-11-05T14:17:36.457Z,5.60
2022-11-05T14:20:24.847Z,6.40
2022-11-05T14:22:54.206Z,6.30
2022-11-05T14:26:02.188Z,5.20
2022-11-05T14:28:44.669Z,4.93
2022-11-05T14:31:54.401Z,5.18
2022-11-05T14:34:42.926Z,4.25
2022-11-05T14:37:41.477Z,3.95
2022-11-05T14:40:36.247Z,4.30
2022-11-05T14:43:08.240Z,4.18
2022-11-05T14:45:40.309Z,3.67
2022-11-05T14:48:28.256Z,3.90
2022-11-05T14:50:57.005Z,5.38
2022-11-05T14:53:31.230Z,3.90
2022-11-05T14:56:04.514Z,3.50
2022-11-05T14:58:35.883Z,5.88
2022-11-05T15:01:07.439Z,3.33
2022-11-05T15:04:01.617Z,3.83
2022-11-05T15:06:33.168Z,2.92
2022-11-05T15:09:26.553Z,5.45
2022-11-05T15:12:09.054Z,4.20
2022-11-05T15:14:48.033Z,4.15
2022-11-05T15:17:22.886Z,4.57
2022-11-05T15:19:53.400Z,4.35
2022-11-05T15:22:31.457Z,4.22
2022-11-05T15:25:00.253Z,3.35
2022-11-05T15:27:50.188Z,4.78
2022-11-05T15:30:20.694Z,3.70
2022-11-05T15:32:50.655Z,5.05
2022-11-05T15:35:25.289Z,5.13
2022-11-05T15:40:32.465Z,2.70
2022-11-05T15:43:12.168Z,3.40
2022-11-05T15:45:40.990Z,4.85
2022-11-05T15:48:20.808Z,2.85
2022-11-05T15:50:49.620Z,2.63
2022-11-05T15:53:44.255Z,3.33
2022-11-05T15:56:15.673Z,3.70
2022-11-05T15:58:48.665Z,5.63
2022-11-05T16:01:22.793Z,4.05
2022-11-05T16:03:54.188Z,3.47
2022-11-05T16:06:35.392Z,3.05
2022-11-05T16:09:04.743Z,5.80
2022-11-05T16:11:33.224Z,3.22
2022-11-05T16:14:16.945Z,4.43
2022-11-05T16:16:46.548Z,3.55
2022-11-05T16:19:40.096Z,3.03
2022-11-05T16:22:09.989Z,3.70
2022-11-05T16:24:38.314Z,3.90
2022-11-05T16:27:07.027Z,4.25
2022-11-05T16:29:37.117Z,4.00
2022-11-05T16:32:15.331Z,3.65
2022-11-05T16:34:48.760Z,3.42
2022-11-05T16:37:21.717Z,3.83
2022-11-05T16:39:50.121Z,4.90
2022-11-05T16:42:39.782Z,4.38
2022-11-05T16:45:11.728Z,4.00
2022-11-05T16:47:40.171Z,3.38
2022-11-05T16:50:22.181Z,5.05
2022-11-05T16:52:51.009Z,3.75
2022-11-05T16:55:20.110Z,4.40
2022-11-05T16:57:52.314Z,3.42
2022-11-05T17:00:22.246Z,3.70
2022-11-05T17:02:51.423Z,4.07
2022-11-05T17:05:24.821Z,3.85
2022-11-05T17:07:53.330Z,3.58
2022-11-05T17:10:23.104Z,3.83
2022-11-05T17:12:51.859Z,4.35
2022-11-05T17:15:23.630Z,3.85
2022-11-05T17:17:53.839Z,3.55
2022-11-05T17:20:31.460Z,3.40
2022-11-05T17:23:02.569Z,4.88
2022-11-05T17:25:30.960Z,4.47
2022-11-05T17:27:59.832Z,5.13
2022-11-05T17:30:28.296Z,3.72
2022-11-05T17:32:56.768Z,3.38
2022-11-05T17:35:27.124Z,4.93
2022-11-05T17:37:55.482Z,3.50
2022-11-05T17:40:24.799Z,3.08
2022-11-05T17:42:53.443Z,4.28
2022-11-05T17:45:21.805Z,3.88
2022-11-05T17:47:50.226Z,3.30
2022-11-05T17:50:19.142Z,3.45
2022-11-05T17:52:48.858Z,3.90
2022-11-05T17:55:17.630Z,4.05
2022-11-05T17:57:48.370Z,4.07
2022-11-05T18:00:19.787Z,3.67
2022-11-05T18:02:49.497Z,3.67
2022-11-05T18:05:19.295Z,5.65
2022-11-05T18:07:49.469Z,4.45
2022-11-05T18:10:18.270Z,5.05
2022-11-05T18:12:47.177Z,4.07
2022-11-05T18:15:16.423Z,4.93
2022-11-05T18:17:45.570Z,3.72
2022-11-05T18:20:18.982Z,4.25
2022-11-05T18:22:50.818Z,4.70
2022-11-05T18:25:19.540Z,4.70
2022-11-05T18:27:47.866Z,4.05
2022-11-05T18:30:16.236Z,4.50
2022-11-05T18:32:45.733Z,5.88
2022-11-05T18:35:14.585Z,3.88
2022-11-05T18:37:43.403Z,6.15
2022-11-05T18:40:13.656Z,4.90
2022-11-05T18:42:42.734Z,5.28
2022-11-05T18:45:12.126Z,4.72
2022-11-05T18:47:40.549Z,4.28
2022-11-05T18:50:10.571Z,4.10
2022-11-05T18:52:39.021Z,5.53
2022-11-05T18:55:08.937Z,4.90
2022-11-05T18:57:39.129Z,3.83
2022-11-05T19:00:08.790Z,5.38
2022-11-05T19:02:37.358Z,4.05
2022-11-05T19:05:27.927Z,4.10
2022-11-05T19:07:55.301Z,5.10
2022-11-05T19:10:23.704Z,5.43
2022-11-05T19:12:53.562Z,5.63
2022-11-05T19:15:21.956Z,4.93
2022-11-05T19:17:50.293Z,5.10
2022-11-05T19:20:18.672Z,7.53
2022-11-05T19:22:47.060Z,4.78
2022-11-05T19:25:15.449Z,4.13
2022-11-05T19:27:44.857Z,5.93
2022-11-05T19:30:14.838Z,6.28
2022-11-05T19:32:43.225Z,5.20
2022-11-05T19:35:11.560Z,5.88
2022-11-05T19:37:39.907Z,5.45
2022-11-05T19:40:09.849Z,5.43
2022-11-05T19:42:38.285Z,5.45
2022-11-05T19:45:30.135Z,5.72
2022-11-05T19:47:57.643Z,5.53
2022-11-05T19:50:26.275Z,6.13
2022-11-05T19:52:54.658Z,6.13
2022-11-05T19:55:23.036Z,6.72
2022-11-05T19:57:51.541Z,7.35
2022-11-05T20:00:20.229Z,5.10
2022-11-05T20:02:48.662Z,6.70
2022-11-05T20:05:19.103Z,6.38
2022-11-05T20:07:52.763Z,5.85
2022-11-05T20:10:22.175Z,5.85
2022-11-05T20:12:50.710Z,5.10
2022-11-05T20:15:19.755Z,5.57
2022-11-05T20:17:52.151Z,6.63
2022-11-05T20:20:22.027Z,5.63
2022-11-05T20:22:52.597Z,7.35
2022-11-05T20:25:20.942Z,6.10
2022-11-05T20:27:49.310Z,8.23
2022-11-05T20:30:18.545Z,7.65
2022-11-05T20:32:46.871Z,7.32
2022-11-05T20:35:15.229Z,5.80
2022-11-05T20:37:48.415Z,6.10
2022-11-05T20:40:19.589Z,7.93
2022-11-05T20:42:47.947Z,6.38
2022-11-05T20:45:16.330Z,7.38
2022-11-05T20:47:44.744Z,7.57
2022-11-05T20:50:13.141Z,8.05
2022-11-05T20:52:41.505Z,7.57
2022-11-05T20:55:11.456Z,8.40
2022-11-05T20:57:39.808Z,7.35
2022-11-05T21:00:09.465Z,9.15
2022-11-05T21:02:39.564Z,9.07
2022-11-05T21:05:09.106Z,6.55
2022-11-05T21:07:37.718Z,9.40
2022-11-05T21:10:07.062Z,8.07
2022-11-05T21:12:36.825Z,7.13
2022-11-05T21:15:06.053Z,9.00
2022-11-05T21:17:34.384Z,7.00
2022-11-05T21:20:02.814Z,6.85
2022-11-05T21:22:31.409Z,8.88
2022-11-05T21:24:59.781Z,7.70
2022-11-05T21:27:28.180Z,7.65
2022-11-05T21:29:57.919Z,6.53
2022-11-05T21:32:26.362Z,7.60
2022-11-05T21:34:54.707Z,10.00
2022-11-05T21:37:23.060Z,6.97
2022-11-05T21:39:51.511Z,7.35
2022-11-05T21:42:19.893Z,8.90
2022-11-05T21:44:48.318Z,10.27
2022-11-05T21:47:18.056Z,8.52
2022-11-05T21:49:46.457Z,10.65
2022-11-05T21:52:32.177Z,8.63
2022-11-05T21:55:17.793Z,8.02
2022-11-05T21:58:03.365Z,10.45
2022-11-05T22:00:32.543Z,8.43
2022-11-05T22:03:02.325Z,8.30
2022-11-05T22:05:30.697Z,8.15
2022-11-05T22:07:59.065Z,10.48
2022-11-05T22:10:27.426Z,9.23
2022-11-05T22:12:55.753Z,8.88
2022-11-05T22:15:24.076Z,7.82
2022-11-05T22:17:52.548Z,9.35
2022-11-05T22:20:22.252Z,7.70
2022-11-05T22:22:50.759Z,7.38
2022-11-05T22:25:19.206Z,10.98
2022-11-05T22:27:47.624Z,8.82
2022-11-05T22:30:16.118Z,8.20
2022-11-05T22:32:46.107Z,8.63
2022-11-05T22:35:14.429Z,7.70
2022-11-05T22:37:44.132Z,8.13
2022-11-05T22:40:12.888Z,8.15
2022-11-05T22:42:41.291Z,7.80
2022-11-05T22:45:10.893Z,8.07
2022-11-05T22:47:39.234Z,7.38
2022-11-05T22:50:08.157Z,8.07
2022-11-05T22:52:36.509Z,7.60
2022-11-05T22:55:06.980Z,8.57
2022-11-05T22:57:35.374Z,7.55
2022-11-05T23:00:04.797Z,7.28
2022-11-05T23:02:33.350Z,7.10
2022-11-05T23:05:01.792Z,8.75
2022-11-05T23:07:47.583Z,8.32
2022-11-05T23:10:35.174Z,6.30
2022-11-05T23:13:04.247Z,7.05
2022-11-05T23:15:50.078Z,7.15
2022-11-05T23:18:35.732Z,9.05
2022-11-05T23:21:23.154Z,7.57
2022-11-05T23:24:07.078Z,6.82
2022-11-05T23:26:51.113Z,7.45
2022-11-05T23:29:21.055Z,8.40
2022-11-05T23:32:07.265Z,7.25
2022-11-05T23:34:35.680Z,8.80
2022-11-05T23:37:21.334Z,7.55
2022-11-05T23:39:50.202Z,8.77
2022-11-05T23:42:37.353Z,7.82
2022-11-05T23:45:24.541Z,8.40
2022-11-05T23:48:10.345Z,8.35
2022-11-05T23:50:40.204Z,7.05
2022-11-05T23:53:10.264Z,8.23
2022-11-05T23:55:39.444Z,8.23
2022-11-05T23:58:09.957Z,7.20
